sensor_id;sensor_type;location;lat;lon;timestamp;pressure;altitude;pressure_sealevel;temperature;humidity
63281;BME280;49406;51.044;3.766;2023-02-14T00:00:11;103511.80;;;1.60;100.00
63281;BME280;49406;51.044;3.766;2023-02-14T00:02:46;103508.39;;;1.57;100.00
63281;BME280;49406;51.044;3.766;2023-02-14T00:05:21;103507.89;;;1.49;100.00
63281;BME280;49406;51.044;3.766;2023-02-14T00:07:55;103503.87;;;1.40;100.00
63281;BME280;49406;51.044;3.766;2023-02-14T00:10:30;103499.93;;;1.37;100.00
63281;BME280;49406;51.044;3.766;2023-02-14T00:13:05;103499.50;;;1.36;100.00
63281;BME280;49406;51.044;3.766;2023-02-14T00:15:40;103496.75;;;1.36;100.00
63281;BME280;49406;51.044;3.766;2023-02-14T00:18:14;103500.27;;;1.41;100.00
63281;BME280;49406;51.044;3.766;2023-02-14T00:20:49;103496.71;;;1.43;100.00
63281;BME280;49406;51.044;3.766;2023-02-14T00:23:24;103497.15;;;1.46;100.00
63281;BME280;49406;51.044;3.766;2023-02-14T00:25:58;103492.88;;;1.45;100.00
63281;BME280;49406;51.044;3.766;2023-02-14T00:28:33;103487.09;;;1.46;100.00
63281;BME280;49406;51.044;3.766;2023-02-14T00:31:08;103483.67;;;1.46;100.00
63281;BME280;49406;51.044;3.766;2023-02-14T00:33:42;103479.85;;;1.44;100.00
63281;BME280;49406;51.044;3.766;2023-02-14T00:36:19;103478.42;;;1.39;100.00
63281;BME280;49406;51.044;3.766;2023-02-14T00:38:53;103474.85;;;1.32;100.00
63281;BME280;49406;51.044;3.766;2023-02-14T00:41:28;103475.73;;;1.22;100.00
63281;BME280;49406;51.044;3.766;2023-02-14T00:44:03;103474.85;;;1.14;100.00
63281;BME280;49406;51.044;3.766;2023-02-14T00:46:39;103477.71;;;1.08;100.00
63281;BME280;49406;51.044;3.766;2023-02-14T00:49:13;103479.41;;;1.06;100.00
63281;BME280;49406;51.044;3.766;2023-02-14T00:51:48;103473.77;;;1.02;100.00
63281;BME280;49406;51.044;3.766;2023-02-14T00:54:23;103472.42;;;1.03;100.00
63281;BME280;49406;51.044;3.766;2023-02-14T00:56:58;103471.42;;;0.96;100.00
63281;BME280;49406;51.044;3.766;2023-02-14T00:59:32;103469.88;;;0.87;100.00
63281;BME280;49406;51.044;3.766;2023-02-14T01:02:07;103471.51;;;0.86;100.00
63281;BME280;49406;51.044;3.766;2023-02-14T01:04:42;103471.79;;;0.87;100.00
63281;BME280;49406;51.044;3.766;2023-02-14T01:07:16;103473.77;;;0.90;100.00
63281;BME280;49406;51.044;3.766;2023-02-14T01:09:51;103471.77;;;0.89;100.00
63281;BME280;49406;51.044;3.766;2023-02-14T01:12:26;103469.13;;;0.83;100.00
63281;BME280;49406;51.044;3.766;2023-02-14T01:15:00;103471.83;;;0.75;100.00
63281;BME280;49406;51.044;3.766;2023-02-14T01:17:33;103470.70;;;0.70;100.00
63281;BME280;49406;51.044;3.766;2023-02-14T01:20:10;103468.82;;;0.66;100.00
63281;BME280;49406;51.044;3.766;2023-02-14T01:22:45;103470.99;;;0.64;100.00
63281;BME280;49406;51.044;3.766;2023-02-14T01:25:20;103473.32;;;0.63;100.00
63281;BME280;49406;51.044;3.766;2023-02-14T01:27:54;103471.17;;;0.62;100.00
63281;BME280;49406;51.044;3.766;2023-02-14T01:30:29;103471.97;;;0.63;100.00
63281;BME280;49406;51.044;3.766;2023-02-14T01:33:04;103472.36;;;0.62;100.00
63281;BME280;49406;51.044;3.766;2023-02-14T01:35:39;103478.50;;;0.61;100.00
63281;BME280;49406;51.044;3.766;2023-02-14T01:38:13;103475.70;;;0.64;100.00
63281;BME280;49406;51.044;3.766;2023-02-14T01:40:46;103473.11;;;0.68;100.00
63281;BME280;49406;51.044;3.766;2023-02-14T01:43:21;103474.38;;;0.69;100.00
63281;BME280;49406;51.044;3.766;2023-02-14T01:45:56;103476.84;;;0.66;100.00
63281;BME280;49406;51.044;3.766;2023-02-14T01:48:31;103478.02;;;0.65;100.00
63281;BME280;49406;51.044;3.766;2023-02-14T01:51:06;103475.48;;;0.60;100.00
63281;BME280;49406;51.044;3.766;2023-02-14T01:53:41;103473.38;;;0.54;100.00
63281;BME280;49406;51.044;3.766;2023-02-14T01:56:20;103469.13;;;0.45;100.00
63281;BME280;49406;51.044;3.766;2023-02-14T01:59:00;103473.48;;;0.40;100.00
63281;BME280;49406;51.044;3.766;2023-02-14T02:01:36;103470.73;;;0.31;100.00
63281;BME280;49406;51.044;3.766;2023-02-14T02:04:14;103471.17;;;0.22;100.00
63281;BME280;49406;51.044;3.766;2023-02-14T02:06:53;103468.92;;;0.18;100.00
63281;BME280;49406;51.044;3.766;2023-02-14T02:09:34;103465.84;;;0.15;100.00
63281;BME280;49406;51.044;3.766;2023-02-14T02:12:10;103465.59;;;0.21;100.00
63281;BME280;49406;51.044;3.766;2023-02-14T02:14:45;103466.91;;;0.26;100.00
63281;BME280;49406;51.044;3.766;2023-02-14T02:17:28;103466.30;;;0.29;100.00
63281;BME280;49406;51.044;3.766;2023-02-14T02:20:35;103465.80;;;0.29;100.00
63281;BME280;49406;51.044;3.766;2023-02-14T02:29:51;103465.57;;;0.04;100.00
63281;BME280;49406;51.044;3.766;2023-02-14T02:35:53;103465.54;;;-0.07;100.00
63281;BME280;49406;51.044;3.766;2023-02-14T02:38:40;103467.15;;;-0.12;100.00
63281;BME280;49406;51.044;3.766;2023-02-14T02:41:31;103465.05;;;-0.18;100.00
63281;BME280;49406;51.044;3.766;2023-02-14T02:44:09;103463.98;;;-0.14;100.00
63281;BME280;49406;51.044;3.766;2023-02-14T02:46:53;103463.20;;;-0.14;100.00
63281;BME280;49406;51.044;3.766;2023-02-14T02:49:39;103458.80;;;-0.16;100.00
63281;BME280;49406;51.044;3.766;2023-02-14T02:52:34;103456.99;;;-0.24;100.00
63281;BME280;49406;51.044;3.766;2023-02-14T02:55:32;103457.34;;;-0.31;100.00
63281;BME280;49406;51.044;3.766;2023-02-14T02:58:27;103454.38;;;-0.31;100.00
63281;BME280;49406;51.044;3.766;2023-02-14T03:01:10;103457.30;;;-0.25;100.00
63281;BME280;49406;51.044;3.766;2023-02-14T03:03:48;103458.66;;;-0.23;100.00
63281;BME280;49406;51.044;3.766;2023-02-14T03:06:44;103457.38;;;-0.26;100.00
63281;BME280;49406;51.044;3.766;2023-02-14T03:09:51;103454.02;;;-0.27;100.00
63281;BME280;49406;51.044;3.766;2023-02-14T03:13:12;103456.91;;;-0.26;100.00
63281;BME280;49406;51.044;3.766;2023-02-14T03:16:21;103451.75;;;-0.20;100.00
63281;BME280;49406;51.044;3.766;2023-02-14T03:19:24;103453.16;;;-0.18;100.00
63281;BME280;49406;51.044;3.766;2023-02-14T03:22:07;103451.34;;;-0.22;100.00
63281;BME280;49406;51.044;3.766;2023-02-14T03:24:48;103451.35;;;-0.24;100.00
63281;BME280;49406;51.044;3.766;2023-02-14T03:27:29;103450.92;;;-0.23;100.00
63281;BME280;49406;51.044;3.766;2023-02-14T03:30:11;103448.30;;;-0.22;100.00
63281;BME280;49406;51.044;3.766;2023-02-14T03:32:50;103446.59;;;-0.24;100.00
63281;BME280;49406;51.044;3.766;2023-02-14T03:35:33;103451.09;;;-0.33;100.00
63281;BME280;49406;51.044;3.766;2023-02-14T03:38:12;103448.75;;;-0.42;100.00
63281;BME280;49406;51.044;3.766;2023-02-14T03:40:51;103446.61;;;-0.51;100.00
63281;BME280;49406;51.044;3.766;2023-02-14T03:43:33;103452.87;;;-0.59;100.00
63281;BME280;49406;51.044;3.766;2023-02-14T03:46:12;103453.05;;;-0.67;100.00
63281;BME280;49406;51.044;3.766;2023-02-14T03:48:51;103446.99;;;-0.70;100.00
63281;BME280;49406;51.044;3.766;2023-02-14T03:51:25;103447.60;;;-0.70;100.00
63281;BME280;49406;51.044;3.766;2023-02-14T03:54:02;103445.52;;;-0.68;100.00
63281;BME280;49406;51.044;3.766;2023-02-14T03:56:41;103443.77;;;-0.65;100.00
63281;BME280;49406;51.044;3.766;2023-02-14T03:59:20;103439.58;;;-0.64;100.00
63281;BME280;49406;51.044;3.766;2023-02-14T04:01:58;103433.11;;;-0.60;100.00
63281;BME280;49406;51.044;3.766;2023-02-14T04:04:39;103429.90;;;-0.51;100.00
63281;BME280;49406;51.044;3.766;2023-02-14T04:07:17;103432.89;;;-0.47;100.00
63281;BME280;49406;51.044;3.766;2023-02-14T04:09:52;103432.95;;;-0.43;100.00
63281;BME280;49406;51.044;3.766;2023-02-14T04:12:27;103439.09;;;-0.36;100.00
63281;BME280;49406;51.044;3.766;2023-02-14T04:15:02;103437.73;;;-0.29;100.00
63281;BME280;49406;51.044;3.766;2023-02-14T04:17:37;103438.30;;;-0.20;100.00
63281;BME280;49406;51.044;3.766;2023-02-14T04:20:30;103436.45;;;-0.20;100.00
63281;BME280;49406;51.044;3.766;2023-02-14T04:23:05;103434.86;;;-0.22;100.00
63281;BME280;49406;51.044;3.766;2023-02-14T04:25:40;103432.85;;;-0.29;100.00
63281;BME280;49406;51.044;3.766;2023-02-14T04:28:17;103431.98;;;-0.33;100.00
63281;BME280;49406;51.044;3.766;2023-02-14T04:30:52;103430.76;;;-0.41;100.00
63281;BME280;49406;51.044;3.766;2023-02-14T04:33:27;103431.77;;;-0.48;100.00
63281;BME280;49406;51.044;3.766;2023-02-14T04:36:02;103432.34;;;-0.59;100.00
63281;BME280;49406;51.044;3.766;2023-02-14T04:38:36;103435.83;;;-0.69;100.00
63281;BME280;49406;51.044;3.766;2023-02-14T04:41:11;103438.05;;;-0.74;100.00
63281;BME280;49406;51.044;3.766;2023-02-14T04:43:46;103440.48;;;-0.79;100.00
63281;BME280;49406;51.044;3.766;2023-02-14T04:46:20;103439.17;;;-0.80;100.00
63281;BME280;49406;51.044;3.766;2023-02-14T04:48:55;103436.33;;;-0.71;100.00
63281;BME280;49406;51.044;3.766;2023-02-14T04:51:30;103426.69;;;-0.58;100.00
63281;BME280;49406;51.044;3.766;2023-02-14T04:54:05;103423.02;;;-0.52;100.00
63281;BME280;49406;51.044;3.766;2023-02-14T04:56:40;103421.98;;;-0.50;100.00
63281;BME280;49406;51.044;3.766;2023-02-14T04:59:14;103423.30;;;-0.47;100.00
63281;BME280;49406;51.044;3.766;2023-02-14T05:01:49;103421.88;;;-0.51;100.00
63281;BME280;49406;51.044;3.766;2023-02-14T05:04:24;103421.08;;;-0.61;100.00
63281;BME280;49406;51.044;3.766;2023-02-14T05:06:59;103424.42;;;-0.69;100.00
63281;BME280;49406;51.044;3.766;2023-02-14T05:09:33;103423.42;;;-0.78;100.00
63281;BME280;49406;51.044;3.766;2023-02-14T05:12:08;103421.64;;;-0.86;100.00
63281;BME280;49406;51.044;3.766;2023-02-14T05:14:43;103422.98;;;-0.92;100.00
63281;BME280;49406;51.044;3.766;2023-02-14T05:17:18;103425.04;;;-0.99;100.00
63281;BME280;49406;51.044;3.766;2023-02-14T05:19:52;103420.07;;;-1.04;100.00
63281;BME280;49406;51.044;3.766;2023-02-14T05:22:27;103422.91;;;-1.09;100.00
63281;BME280;49406;51.044;3.766;2023-02-14T05:25:02;103419.67;;;-1.10;100.00
63281;BME280;49406;51.044;3.766;2023-02-14T05:27:36;103420.08;;;-1.11;100.00
63281;BME280;49406;51.044;3.766;2023-02-14T05:30:14;103420.11;;;-1.13;100.00
63281;BME280;49406;51.044;3.766;2023-02-14T05:32:48;103416.14;;;-1.13;100.00
63281;BME280;49406;51.044;3.766;2023-02-14T05:35:23;103421.64;;;-1.08;100.00
63281;BME280;49406;51.044;3.766;2023-02-14T05:37:58;103419.02;;;-0.97;100.00
63281;BME280;49406;51.044;3.766;2023-02-14T05:40:32;103419.20;;;-0.86;100.00
63281;BME280;49406;51.044;3.766;2023-02-14T05:43:07;103418.09;;;-0.78;100.00
63281;BME280;49406;51.044;3.766;2023-02-14T05:45:42;103412.17;;;-0.73;100.00
63281;BME280;49406;51.044;3.766;2023-02-14T05:48:18;103416.63;;;-0.74;100.00
63281;BME280;49406;51.044;3.766;2023-02-14T05:50:53;103413.48;;;-0.76;100.00
63281;BME280;49406;51.044;3.766;2023-02-14T05:53:28;103414.94;;;-0.75;100.00
63281;BME280;49406;51.044;3.766;2023-02-14T05:56:03;103409.63;;;-0.75;100.00
63281;BME280;49406;51.044;3.766;2023-02-14T05:58:38;103416.63;;;-0.74;100.00
63281;BME280;49406;51.044;3.766;2023-02-14T06:01:12;103415.64;;;-0.75;100.00
63281;BME280;49406;51.044;3.766;2023-02-14T06:03:47;103418.75;;;-0.78;100.00
63281;BME280;49406;51.044;3.766;2023-02-14T06:06:22;103420.52;;;-0.76;100.00
63281;BME280;49406;51.044;3.766;2023-02-14T06:08:56;103425.16;;;-0.71;100.00
63281;BME280;49406;51.044;3.766;2023-02-14T06:11:31;103428.73;;;-0.69;100.00
63281;BME280;49406;51.044;3.766;2023-02-14T06:14:06;103422.63;;;-0.68;100.00
63281;BME280;49406;51.044;3.766;2023-02-14T06:16:40;103421.29;;;-0.67;100.00
63281;BME280;49406;51.044;3.766;2023-02-14T06:19:15;103423.95;;;-0.66;100.00
63281;BME280;49406;51.044;3.766;2023-02-14T06:21:50;103423.06;;;-0.64;100.00
63281;BME280;49406;51.044;3.766;2023-02-14T06:24:25;103428.23;;;-0.62;100.00
63281;BME280;49406;51.044;3.766;2023-02-14T06:27:00;103433.73;;;-0.62;100.00
63281;BME280;49406;51.044;3.766;2023-02-14T06:29:35;103432.08;;;-0.61;100.00
63281;BME280;49406;51.044;3.766;2023-02-14T06:32:10;103428.19;;;-0.53;100.00
63281;BME280;49406;51.044;3.766;2023-02-14T06:34:44;103430.30;;;-0.37;100.00
63281;BME280;49406;51.044;3.766;2023-02-14T06:37:19;103431.97;;;-0.26;100.00
63281;BME280;49406;51.044;3.766;2023-02-14T06:39:54;103432.58;;;-0.17;100.00
63281;BME280;49406;51.044;3.766;2023-02-14T06:42:28;103432.96;;;-0.21;100.00
63281;BME280;49406;51.044;3.766;2023-02-14T06:45:04;103432.33;;;-0.24;100.00
63281;BME280;49406;51.044;3.766;2023-02-14T06:47:38;103435.01;;;-0.21;100.00
63281;BME280;49406;51.044;3.766;2023-02-14T06:50:12;103432.08;;;-0.12;100.00
63281;BME280;49406;51.044;3.766;2023-02-14T06:52:46;103431.95;;;-0.02;100.00
63281;BME280;49406;51.044;3.766;2023-02-14T06:55:23;103432.98;;;0.01;100.00
63281;BME280;49406;51.044;3.766;2023-02-14T06:57:58;103433.09;;;-0.01;100.00
63281;BME280;49406;51.044;3.766;2023-02-14T07:00:33;103433.50;;;-0.08;100.00
63281;BME280;49406;51.044;3.766;2023-02-14T07:03:08;103434.52;;;-0.13;100.00
63281;BME280;49406;51.044;3.766;2023-02-14T07:05:43;103436.93;;;-0.17;100.00
63281;BME280;49406;51.044;3.766;2023-02-14T07:08:18;103435.40;;;-0.18;100.00
63281;BME280;49406;51.044;3.766;2023-02-14T07:10:57;103437.02;;;-0.21;100.00
63281;BME280;49406;51.044;3.766;2023-02-14T07:13:31;103438.33;;;-0.26;100.00
63281;BME280;49406;51.044;3.766;2023-02-14T07:16:06;103438.54;;;-0.33;100.00
63281;BME280;49406;51.044;3.766;2023-02-14T07:18:41;103435.23;;;-0.39;100.00
63281;BME280;49406;51.044;3.766;2023-02-14T07:21:16;103433.27;;;-0.38;100.00
63281;BME280;49406;51.044;3.766;2023-02-14T07:23:50;103431.39;;;-0.24;100.00
63281;BME280;49406;51.044;3.766;2023-02-14T07:26:25;103436.38;;;-0.15;100.00
63281;BME280;49406;51.044;3.766;2023-02-14T07:29:00;103436.36;;;-0.08;100.00
63281;BME280;49406;51.044;3.766;2023-02-14T07:31:34;103438.47;;;0.02;100.00
63281;BME280;49406;51.044;3.766;2023-02-14T07:34:09;103439.52;;;0.20;100.00
63281;BME280;49406;51.044;3.766;2023-02-14T07:36:44;103433.73;;;0.38;100.00
63281;BME280;49406;51.044;3.766;2023-02-14T07:39:19;103432.70;;;0.50;100.00
63281;BME280;49406;51.044;3.766;2023-02-14T07:41:53;103434.61;;;0.57;100.00
63281;BME280;49406;51.044;3.766;2023-02-14T07:44:28;103435.13;;;0.63;100.00
63281;BME280;49406;51.044;3.766;2023-02-14T07:47:03;103435.98;;;0.69;100.00
63281;BME280;49406;51.044;3.766;2023-02-14T07:49:37;103438.12;;;0.77;100.00
63281;BME280;49406;51.044;3.766;2023-02-14T07:52:12;103438.42;;;0.84;100.00
63281;BME280;49406;51.044;3.766;2023-02-14T07:54:47;103432.14;;;0.91;100.00
63281;BME280;49406;51.044;3.766;2023-02-14T07:57:21;103437.27;;;0.95;100.00
63281;BME280;49406;51.044;3.766;2023-02-14T07:59:56;103436.85;;;0.98;100.00
63281;BME280;49406;51.044;3.766;2023-02-14T08:02:30;103433.19;;;0.98;100.00
63281;BME280;49406;51.044;3.766;2023-02-14T08:05:06;103431.84;;;0.99;100.00
63281;BME280;49406;51.044;3.766;2023-02-14T08:07:41;103432.95;;;1.08;100.00
63281;BME280;49406;51.044;3.766;2023-02-14T08:10:16;103428.95;;;1.20;100.00
63281;BME280;49406;51.044;3.766;2023-02-14T08:12:51;103422.77;;;1.31;100.00
63281;BME280;49406;51.044;3.766;2023-02-14T08:15:33;103427.25;;;1.45;100.00
63281;BME280;49406;51.044;3.766;2023-02-14T08:18:26;103424.44;;;1.57;100.00
63281;BME280;49406;51.044;3.766;2023-02-14T08:21:01;103423.30;;;1.68;100.00
63281;BME280;49406;51.044;3.766;2023-02-14T08:23:36;103426.98;;;1.79;100.00
63281;BME280;49406;51.044;3.766;2023-02-14T08:26:11;103429.30;;;1.87;100.00
63281;BME280;49406;51.044;3.766;2023-02-14T08:28:45;103427.61;;;1.96;100.00
63281;BME280;49406;51.044;3.766;2023-02-14T08:31:25;103426.30;;;2.07;100.00
63281;BME280;49406;51.044;3.766;2023-02-14T08:34:00;103425.71;;;2.19;100.00
63281;BME280;49406;51.044;3.766;2023-02-14T08:36:35;103426.16;;;2.30;100.00
63281;BME280;49406;51.044;3.766;2023-02-14T08:39:10;103428.44;;;2.45;100.00
63281;BME280;49406;51.044;3.766;2023-02-14T08:41:45;103430.79;;;2.59;100.00
63281;BME280;49406;51.044;3.766;2023-02-14T08:44:19;103428.00;;;2.74;100.00
63281;BME280;49406;51.044;3.766;2023-02-14T08:46:54;103425.14;;;2.90;100.00
63281;BME280;49406;51.044;3.766;2023-02-14T08:49:29;103422.99;;;3.04;100.00
63281;BME280;49406;51.044;3.766;2023-02-14T08:52:03;103422.37;;;3.20;100.00
63281;BME280;49406;51.044;3.766;2023-02-14T08:54:38;103422.91;;;3.31;100.00
63281;BME280;49406;51.044;3.766;2023-02-14T08:57:13;103421.47;;;3.43;100.00
63281;BME280;49406;51.044;3.766;2023-02-14T08:59:46;103422.98;;;3.56;100.00
63281;BME280;49406;51.044;3.766;2023-02-14T09:02:21;103421.12;;;3.68;100.00
63281;BME280;49406;51.044;3.766;2023-02-14T09:04:55;103422.36;;;3.81;100.00
63281;BME280;49406;51.044;3.766;2023-02-14T09:07:31;103422.08;;;3.96;100.00
63281;BME280;49406;51.044;3.766;2023-02-14T09:10:07;103420.42;;;4.15;100.00
63281;BME280;49406;51.044;3.766;2023-02-14T09:12:42;103418.95;;;4.60;100.00
63281;BME280;49406;51.044;3.766;2023-02-14T09:15:18;103424.84;;;5.12;100.00
63281;BME280;49406;51.044;3.766;2023-02-14T09:17:52;103427.31;;;5.60;100.00
63281;BME280;49406;51.044;3.766;2023-02-14T09:20:27;103434.66;;;6.03;100.00
63281;BME280;49406;51.044;3.766;2023-02-14T09:23:02;103434.91;;;6.40;100.00
63281;BME280;49406;51.044;3.766;2023-02-14T09:25:36;103428.20;;;6.75;100.00
63281;BME280;49406;51.044;3.766;2023-02-14T09:28:11;103417.91;;;7.08;100.00
63281;BME280;49406;51.044;3.766;2023-02-14T09:30:46;103420.81;;;7.37;100.00
63281;BME280;49406;51.044;3.766;2023-02-14T09:33:21;103417.67;;;7.74;100.00
63281;BME280;49406;51.044;3.766;2023-02-14T09:35:57;103419.98;;;8.06;100.00
63281;BME280;49406;51.044;3.766;2023-02-14T09:38:49;103425.42;;;8.39;100.00
63281;BME280;49406;51.044;3.766;2023-02-14T09:41:45;103419.70;;;8.63;100.00
63281;BME280;49406;51.044;3.766;2023-02-14T09:44:26;103413.83;;;8.80;100.00
63281;BME280;49406;51.044;3.766;2023-02-14T09:47:01;103410.45;;;9.00;100.00
63281;BME280;49406;51.044;3.766;2023-02-14T09:49:39;103416.58;;;9.26;100.00
63281;BME280;49406;51.044;3.766;2023-02-14T09:52:17;103411.70;;;9.49;100.00
63281;BME280;49406;51.044;3.766;2023-02-14T09:54:56;103409.51;;;9.70;100.00
63281;BME280;49406;51.044;3.766;2023-02-14T09:57:41;103414.40;;;9.79;100.00
63281;BME280;49406;51.044;3.766;2023-02-14T10:00:26;103410.48;;;9.92;100.00
63281;BME280;49406;51.044;3.766;2023-02-14T10:03:14;103414.98;;;9.98;100.00
63281;BME280;49406;51.044;3.766;2023-02-14T10:05:58;103414.41;;;9.80;99.92
63281;BME280;49406;51.044;3.766;2023-02-14T10:08:46;103414.32;;;9.62;100.00
63281;BME280;49406;51.044;3.766;2023-02-14T10:11:28;103411.45;;;9.47;100.00
63281;BME280;49406;51.044;3.766;2023-02-14T10:14:07;103415.11;;;9.38;100.00
63281;BME280;49406;51.044;3.766;2023-02-14T10:16:47;103417.86;;;9.27;100.00
63281;BME280;49406;51.044;3.766;2023-02-14T10:19:26;103421.21;;;9.18;100.00
63281;BME280;49406;51.044;3.766;2023-02-14T10:22:06;103421.23;;;9.09;100.00
63281;BME280;49406;51.044;3.766;2023-02-14T10:24:46;103422.46;;;9.03;100.00
63281;BME280;49406;51.044;3.766;2023-02-14T10:27:30;103423.23;;;8.98;100.00
63281;BME280;49406;51.044;3.766;2023-02-14T10:30:14;103418.47;;;8.94;100.00
63281;BME280;49406;51.044;3.766;2023-02-14T10:32:54;103417.48;;;8.89;100.00
63281;BME280;49406;51.044;3.766;2023-02-14T10:35:38;103420.01;;;8.88;100.00
63281;BME280;49406;51.044;3.766;2023-02-14T10:38:23;103422.98;;;8.91;100.00
63281;BME280;49406;51.044;3.766;2023-02-14T10:44:13;103414.05;;;8.96;100.00
63281;BME280;49406;51.044;3.766;2023-02-14T10:46:55;103414.30;;;8.97;100.00
63281;BME280;49406;51.044;3.766;2023-02-14T10:49:39;103412.98;;;8.99;100.00
63281;BME280;49406;51.044;3.766;2023-02-14T10:52:17;103411.27;;;9.03;100.00
63281;BME280;49406;51.044;3.766;2023-02-14T10:54:57;103406.56;;;9.03;100.00
63281;BME280;49406;51.044;3.766;2023-02-14T10:57:35;103407.79;;;9.03;100.00
63281;BME280;49406;51.044;3.766;2023-02-14T11:00:21;103398.69;;;9.02;100.00
63281;BME280;49406;51.044;3.766;2023-02-14T11:03:00;103394.57;;;9.06;100.00
63281;BME280;49406;51.044;3.766;2023-02-14T11:05:40;103389.75;;;9.11;100.00
63281;BME280;49406;51.044;3.766;2023-02-14T11:08:21;103388.48;;;9.13;100.00
63281;BME280;49406;51.044;3.766;2023-02-14T11:11:02;103386.28;;;9.15;100.00
63281;BME280;49406;51.044;3.766;2023-02-14T11:13:40;103379.09;;;9.21;100.00
63281;BME280;49406;51.044;3.766;2023-02-14T11:16:27;103370.09;;;9.28;100.00
63281;BME280;49406;51.044;3.766;2023-02-14T11:19:17;103362.85;;;9.33;100.00
63281;BME280;49406;51.044;3.766;2023-02-14T11:21:54;103366.52;;;9.43;100.00
63281;BME280;49406;51.044;3.766;2023-02-14T11:24:32;103366.59;;;9.48;100.00
63281;BME280;49406;51.044;3.766;2023-02-14T11:27:13;103365.89;;;9.55;100.00
63281;BME280;49406;51.044;3.766;2023-02-14T11:29:50;103359.04;;;9.63;100.00
63281;BME280;49406;51.044;3.766;2023-02-14T11:32:28;103362.60;;;9.72;100.00
63281;BME280;49406;51.044;3.766;2023-02-14T11:35:05;103360.91;;;9.76;100.00
63281;BME280;49406;51.044;3.766;2023-02-14T11:37:44;103354.29;;;9.80;100.00
63281;BME280;49406;51.044;3.766;2023-02-14T11:40:27;103349.63;;;9.84;100.00
63281;BME280;49406;51.044;3.766;2023-02-14T11:43:19;103347.94;;;9.89;100.00
63281;BME280;49406;51.044;3.766;2023-02-14T11:46:05;103342.29;;;9.94;100.00
63281;BME280;49406;51.044;3.766;2023-02-14T11:48:55;103340.61;;;10.00;100.00
63281;BME280;49406;51.044;3.766;2023-02-14T11:51:32;103334.50;;;10.07;100.00
63281;BME280;49406;51.044;3.766;2023-02-14T11:54:12;103329.17;;;10.15;100.00
63281;BME280;49406;51.044;3.766;2023-02-14T11:56:53;103324.18;;;10.20;100.00
63281;BME280;49406;51.044;3.766;2023-02-14T11:59:33;103317.63;;;10.25;100.00
63281;BME280;49406;51.044;3.766;2023-02-14T12:02:21;103315.41;;;10.33;100.00
63281;BME280;49406;51.044;3.766;2023-02-14T12:05:00;103313.89;;;10.42;99.87
63281;BME280;49406;51.044;3.766;2023-02-14T12:07:34;103305.46;;;10.52;100.00
63281;BME280;49406;51.044;3.766;2023-02-14T12:10:23;103308.06;;;10.63;99.94
63281;BME280;49406;51.044;3.766;2023-02-14T12:13:03;103299.71;;;10.67;100.00
63281;BME280;49406;51.044;3.766;2023-02-14T12:15:55;103296.05;;;10.75;98.54
63281;BME280;49406;51.044;3.766;2023-02-14T12:18:44;103292.14;;;10.81;96.87
63281;BME280;49406;51.044;3.766;2023-02-14T12:21:42;103286.02;;;10.89;96.33
63281;BME280;49406;51.044;3.766;2023-02-14T12:24:21;103284.66;;;10.94;97.68
63281;BME280;49406;51.044;3.766;2023-02-14T12:27:02;103285.95;;;10.99;98.41
63281;BME280;49406;51.044;3.766;2023-02-14T12:29:43;103281.54;;;11.06;97.45
63281;BME280;49406;51.044;3.766;2023-02-14T12:32:23;103277.76;;;11.15;95.95
63281;BME280;49406;51.044;3.766;2023-02-14T12:34:59;103265.72;;;11.21;96.54
63281;BME280;49406;51.044;3.766;2023-02-14T12:37:43;103266.30;;;11.29;96.74
63281;BME280;49406;51.044;3.766;2023-02-14T12:40:30;103264.86;;;11.32;95.44
63281;BME280;49406;51.044;3.766;2023-02-14T12:43:43;103264.25;;;11.35;95.46
63281;BME280;49406;51.044;3.766;2023-02-14T12:46:32;103263.21;;;11.39;95.32
63281;BME280;49406;51.044;3.766;2023-02-14T12:49:30;103261.88;;;11.44;94.35
63281;BME280;49406;51.044;3.766;2023-02-14T12:52:32;103259.01;;;11.47;95.95
63281;BME280;49406;51.044;3.766;2023-02-14T12:55:26;103257.81;;;11.56;95.88
63281;BME280;49406;51.044;3.766;2023-02-14T12:58:08;103253.38;;;11.62;94.69
63281;BME280;49406;51.044;3.766;2023-02-14T13:00:54;103250.89;;;11.70;94.05
63281;BME280;49406;51.044;3.766;2023-02-14T13:03:50;103246.77;;;11.72;94.67
63281;BME280;49406;51.044;3.766;2023-02-14T13:06:35;103246.69;;;11.78;94.00
63281;BME280;49406;51.044;3.766;2023-02-14T13:09:22;103244.41;;;11.82;92.87
63281;BME280;49406;51.044;3.766;2023-02-14T13:12:11;103242.75;;;11.85;91.89
63281;BME280;49406;51.044;3.766;2023-02-14T13:14:58;103239.14;;;11.86;90.71
63281;BME280;49406;51.044;3.766;2023-02-14T13:17:39;103236.20;;;11.87;90.76
63281;BME280;49406;51.044;3.766;2023-02-14T13:23:29;103225.58;;;11.93;91.23
63281;BME280;49406;51.044;3.766;2023-02-14T13:26:11;103225.94;;;11.98;90.44
63281;BME280;49406;51.044;3.766;2023-02-14T13:28:50;103221.92;;;12.02;88.81
63281;BME280;49406;51.044;3.766;2023-02-14T13:31:26;103217.14;;;12.06;89.86
63281;BME280;49406;51.044;3.766;2023-02-14T13:34:05;103214.25;;;12.08;90.16
63281;BME280;49406;51.044;3.766;2023-02-14T13:36:41;103220.88;;;12.11;89.28
63281;BME280;49406;51.044;3.766;2023-02-14T13:39:24;103215.71;;;12.14;89.47
63281;BME280;49406;51.044;3.766;2023-02-14T13:42:00;103210.86;;;12.15;88.62
63281;BME280;49406;51.044;3.766;2023-02-14T13:44:51;103211.95;;;12.21;90.44
63281;BME280;49406;51.044;3.766;2023-02-14T13:47:27;103210.79;;;12.22;90.43
63281;BME280;49406;51.044;3.766;2023-02-14T13:50:02;103201.39;;;12.20;90.32
63281;BME280;49406;51.044;3.766;2023-02-14T13:52:42;103199.38;;;12.22;88.31
63281;BME280;49406;51.044;3.766;2023-02-14T13:55:20;103199.64;;;12.24;88.37
63281;BME280;49406;51.044;3.766;2023-02-14T13:58:03;103199.42;;;12.27;89.14
63281;BME280;49406;51.044;3.766;2023-02-14T14:00:41;103200.06;;;12.30;90.21